sensor_id;sensor_type;location;lat;lon;timestamp;P1;durP1;ratioP1;P2;durP2;ratioP2
37413;SDS011;23279;46.472;30.760;2022-11-20T00:01:45;0.10;;;0.10;;
37413;SDS011;23279;46.472;30.760;2022-11-20T00:04:10;0.00;;;0.00;;
37413;SDS011;23279;46.472;30.760;2022-11-20T00:06:37;0.00;;;0.00;;
37413;SDS011;23279;46.472;30.760;2022-11-20T00:09:02;0.00;;;0.00;;
37413;SDS011;23279;46.472;30.760;2022-11-20T00:11:30;0.00;;;0.00;;
37413;SDS011;23279;46.472;30.760;2022-11-20T00:13:57;0.00;;;0.00;;
37413;SDS011;23279;46.472;30.760;2022-11-20T00:16:25;0.00;;;0.00;;
37413;SDS011;23279;46.472;30.760;2022-11-20T00:18:52;0.00;;;0.00;;
37413;SDS011;23279;46.472;30.760;2022-11-20T00:21:19;0.00;;;0.00;;
37413;SDS011;23279;46.472;30.760;2022-11-20T00:23:49;0.00;;;0.00;;
37413;SDS011;23279;46.472;30.760;2022-11-20T00:26:17;0.00;;;0.00;;
37413;SDS011;23279;46.472;30.760;2022-11-20T00:28:48;0.00;;;0.00;;
37413;SDS011;23279;46.472;30.760;2022-11-20T00:31:15;0.08;;;0.08;;
37413;SDS011;23279;46.472;30.760;2022-11-20T00:33:41;0.00;;;0.00;;
37413;SDS011;23279;46.472;30.760;2022-11-20T00:36:08;0.10;;;0.10;;
37413;SDS011;23279;46.472;30.760;2022-11-20T00:38:35;0.10;;;0.10;;
37413;SDS011;23279;46.472;30.760;2022-11-20T00:41:02;0.03;;;0.03;;
37413;SDS011;23279;46.472;30.760;2022-11-20T00:43:31;0.00;;;0.00;;
37413;SDS011;23279;46.472;30.760;2022-11-20T00:46:08;0.00;;;0.00;;
37413;SDS011;23279;46.472;30.760;2022-11-20T00:48:43;0.00;;;0.00;;
37413;SDS011;23279;46.472;30.760;2022-11-20T00:51:10;0.00;;;0.00;;
37413;SDS011;23279;46.472;30.760;2022-11-20T00:53:37;0.00;;;0.00;;
37413;SDS011;23279;46.472;30.760;2022-11-20T00:56:04;0.00;;;0.00;;
37413;SDS011;23279;46.472;30.760;2022-11-20T00:58:36;0.00;;;0.00;;
37413;SDS011;23279;46.472;30.760;2022-11-20T01:01:37;0.10;;;0.10;;
37413;SDS011;23279;46.472;30.760;2022-11-20T01:03:56;0.00;;;0.00;;
37413;SDS011;23279;46.472;30.760;2022-11-20T01:06:24;0.00;;;0.00;;
37413;SDS011;23279;46.472;30.760;2022-11-20T01:08:52;0.00;;;0.00;;
37413;SDS011;23279;46.472;30.760;2022-11-20T01:11:20;0.00;;;0.00;;
37413;SDS011;23279;46.472;30.760;2022-11-20T01:13:48;0.00;;;0.00;;
37413;SDS011;23279;46.472;30.760;2022-11-20T01:18:51;0.00;;;0.00;;
37413;SDS011;23279;46.472;30.760;2022-11-20T01:21:19;0.00;;;0.00;;
37413;SDS011;23279;46.472;30.760;2022-11-20T01:23:47;0.00;;;0.00;;
37413;SDS011;23279;46.472;30.760;2022-11-20T01:26:14;0.00;;;0.00;;
37413;SDS011;23279;46.472;30.760;2022-11-20T01:28:42;0.00;;;0.00;;
37413;SDS011;23279;46.472;30.760;2022-11-20T01:31:15;0.10;;;0.10;;
37413;SDS011;23279;46.472;30.760;2022-11-20T01:33:42;0.00;;;0.00;;
37413;SDS011;23279;46.472;30.760;2022-11-20T01:36:08;0.00;;;0.00;;
37413;SDS011;23279;46.472;30.760;2022-11-20T01:38:34;0.00;;;0.00;;
37413;SDS011;23279;46.472;30.760;2022-11-20T01:41:00;0.10;;;0.10;;
37413;SDS011;23279;46.472;30.760;2022-11-20T01:43:25;0.00;;;0.00;;
37413;SDS011;23279;46.472;30.760;2022-11-20T01:46:05;0.00;;;0.00;;
37413;SDS011;23279;46.472;30.760;2022-11-20T01:48:51;0.00;;;0.00;;
37413;SDS011;23279;46.472;30.760;2022-11-20T01:51:23;0.00;;;0.00;;
37413;SDS011;23279;46.472;30.760;2022-11-20T01:53:54;0.00;;;0.00;;
37413;SDS011;23279;46.472;30.760;2022-11-20T01:56:22;0.05;;;0.05;;
37413;SDS011;23279;46.472;30.760;2022-11-20T01:58:51;0.10;;;0.10;;
37413;SDS011;23279;46.472;30.760;2022-11-20T02:01:20;0.00;;;0.00;;
37413;SDS011;23279;46.472;30.760;2022-11-20T02:03:46;0.00;;;0.00;;
37413;SDS011;23279;46.472;30.760;2022-11-20T02:06:17;0.00;;;0.00;;
37413;SDS011;23279;46.472;30.760;2022-11-20T02:08:49;0.00;;;0.00;;
37413;SDS011;23279;46.472;30.760;2022-11-20T02:11:15;0.00;;;0.00;;
37413;SDS011;23279;46.472;30.760;2022-11-20T02:13:40;0.00;;;0.00;;
37413;SDS011;23279;46.472;30.760;2022-11-20T02:16:13;0.00;;;0.00;;
37413;SDS011;23279;46.472;30.760;2022-11-20T02:18:59;0.00;;;0.00;;
37413;SDS011;23279;46.472;30.760;2022-11-20T02:24:09;0.00;;;0.00;;
37413;SDS011;23279;46.472;30.760;2022-11-20T02:26:39;0.00;;;0.00;;
37413;SDS011;23279;46.472;30.760;2022-11-20T02:29:06;0.00;;;0.00;;
37413;SDS011;23279;46.472;30.760;2022-11-20T02:31:38;0.00;;;0.00;;
37413;SDS011;23279;46.472;30.760;2022-11-20T02:34:06;0.05;;;0.05;;
37413;SDS011;23279;46.472;30.760;2022-11-20T02:36:32;0.00;;;0.00;;
37413;SDS011;23279;46.472;30.760;2022-11-20T02:39:00;0.00;;;0.00;;
37413;SDS011;23279;46.472;30.760;2022-11-20T02:41:33;0.00;;;0.00;;
37413;SDS011;23279;46.472;30.760;2022-11-20T02:44:02;0.00;;;0.00;;
37413;SDS011;23279;46.472;30.760;2022-11-20T02:46:29;0.00;;;0.00;;
37413;SDS011;23279;46.472;30.760;2022-11-20T02:48:55;0.00;;;0.00;;
37413;SDS011;23279;46.472;30.760;2022-11-20T02:51:21;0.00;;;0.00;;
37413;SDS011;23279;46.472;30.760;2022-11-20T02:53:46;0.00;;;0.00;;
37413;SDS011;23279;46.472;30.760;2022-11-20T02:56:12;0.00;;;0.00;;
37413;SDS011;23279;46.472;30.760;2022-11-20T02:58:37;0.00;;;0.00;;
37413;SDS011;23279;46.472;30.760;2022-11-20T03:01:03;0.00;;;0.00;;
37413;SDS011;23279;46.472;30.760;2022-11-20T03:03:28;0.00;;;0.00;;
37413;SDS011;23279;46.472;30.760;2022-11-20T03:05:54;0.00;;;0.00;;
37413;SDS011;23279;46.472;30.760;2022-11-20T03:08:19;0.00;;;0.00;;
37413;SDS011;23279;46.472;30.760;2022-11-20T03:10:44;0.10;;;0.10;;
37413;SDS011;23279;46.472;30.760;2022-11-20T03:13:10;0.00;;;0.00;;
37413;SDS011;23279;46.472;30.760;2022-11-20T03:15:36;0.00;;;0.00;;
37413;SDS011;23279;46.472;30.760;2022-11-20T03:18:02;0.00;;;0.00;;
37413;SDS011;23279;46.472;30.760;2022-11-20T03:20:28;0.10;;;0.08;;
37413;SDS011;23279;46.472;30.760;2022-11-20T03:22:53;0.00;;;0.00;;
37413;SDS011;23279;46.472;30.760;2022-11-20T03:25:20;0.00;;;0.00;;
37413;SDS011;23279;46.472;30.760;2022-11-20T03:27:45;0.00;;;0.00;;
37413;SDS011;23279;46.472;30.760;2022-11-20T03:30:11;0.00;;;0.00;;
37413;SDS011;23279;46.472;30.760;2022-11-20T03:32:36;0.00;;;0.00;;
37413;SDS011;23279;46.472;30.760;2022-11-20T03:35:02;0.00;;;0.00;;
37413;SDS011;23279;46.472;30.760;2022-11-20T03:37:27;0.00;;;0.00;;
37413;SDS011;23279;46.472;30.760;2022-11-20T03:39:53;0.00;;;0.00;;
37413;SDS011;23279;46.472;30.760;2022-11-20T03:42:18;0.00;;;0.00;;
37413;SDS011;23279;46.472;30.760;2022-11-20T03:45:02;0.00;;;0.00;;
37413;SDS011;23279;46.472;30.760;2022-11-20T03:47:28;0.00;;;0.00;;
37413;SDS011;23279;46.472;30.760;2022-11-20T03:49:53;0.00;;;0.00;;
37413;SDS011;23279;46.472;30.760;2022-11-20T03:52:19;0.00;;;0.00;;
37413;SDS011;23279;46.472;30.760;2022-11-20T03:54:44;0.00;;;0.00;;
37413;SDS011;23279;46.472;30.760;2022-11-20T03:57:09;0.00;;;0.00;;
37413;SDS011;23279;46.472;30.760;2022-11-20T03:59:35;0.00;;;0.00;;
37413;SDS011;23279;46.472;30.760;2022-11-20T04:02:00;0.00;;;0.00;;
37413;SDS011;23279;46.472;30.760;2022-11-20T04:04:26;0.00;;;0.00;;
37413;SDS011;23279;46.472;30.760;2022-11-20T04:06:51;0.00;;;0.00;;
37413;SDS011;23279;46.472;30.760;2022-11-20T04:09:16;0.10;;;0.10;;
37413;SDS011;23279;46.472;30.760;2022-11-20T04:11:42;0.00;;;0.00;;
37413;SDS011;23279;46.472;30.760;2022-11-20T04:14:11;0.00;;;0.00;;
37413;SDS011;23279;46.472;30.760;2022-11-20T04:16:39;0.00;;;0.00;;
37413;SDS011;23279;46.472;30.760;2022-11-20T04:19:05;0.10;;;0.10;;
37413;SDS011;23279;46.472;30.760;2022-11-20T04:21:34;0.00;;;0.00;;
37413;SDS011;23279;46.472;30.760;2022-11-20T04:24:00;0.00;;;0.00;;
37413;SDS011;23279;46.472;30.760;2022-11-20T04:26:26;0.00;;;0.00;;
37413;SDS011;23279;46.472;30.760;2022-11-20T04:28:53;0.00;;;0.00;;
37413;SDS011;23279;46.472;30.760;2022-11-20T04:31:23;0.00;;;0.00;;
37413;SDS011;23279;46.472;30.760;2022-11-20T04:33:50;0.00;;;0.00;;
37413;SDS011;23279;46.472;30.760;2022-11-20T04:36:17;0.10;;;0.10;;
37413;SDS011;23279;46.472;30.760;2022-11-20T04:38:53;0.08;;;0.08;;
37413;SDS011;23279;46.472;30.760;2022-11-20T04:41:20;0.00;;;0.00;;
37413;SDS011;23279;46.472;30.760;2022-11-20T04:43:50;0.00;;;0.00;;
37413;SDS011;23279;46.472;30.760;2022-11-20T04:46:18;0.00;;;0.00;;
37413;SDS011;23279;46.472;30.760;2022-11-20T04:48:45;0.00;;;0.00;;
37413;SDS011;23279;46.472;30.760;2022-11-20T04:51:11;0.00;;;0.00;;
37413;SDS011;23279;46.472;30.760;2022-11-20T04:53:37;0.00;;;0.00;;
37413;SDS011;23279;46.472;30.760;2022-11-20T04:56:04;0.00;;;0.00;;
37413;SDS011;23279;46.472;30.760;2022-11-20T04:58:31;0.00;;;0.00;;
37413;SDS011;23279;46.472;30.760;2022-11-20T05:01:03;0.00;;;0.00;;
37413;SDS011;23279;46.472;30.760;2022-11-20T05:03:30;0.00;;;0.00;;
37413;SDS011;23279;46.472;30.760;2022-11-20T05:05:56;0.00;;;0.00;;
37413;SDS011;23279;46.472;30.760;2022-11-20T05:08:21;0.10;;;0.10;;
37413;SDS011;23279;46.472;30.760;2022-11-20T05:10:47;0.00;;;0.00;;
37413;SDS011;23279;46.472;30.760;2022-11-20T05:13:12;0.00;;;0.00;;
37413;SDS011;23279;46.472;30.760;2022-11-20T05:15:38;0.10;;;0.10;;
37413;SDS011;23279;46.472;30.760;2022-11-20T05:18:03;0.10;;;0.10;;
37413;SDS011;23279;46.472;30.760;2022-11-20T05:20:29;0.00;;;0.00;;
37413;SDS011;23279;46.472;30.760;2022-11-20T05:22:57;0.00;;;0.00;;
37413;SDS011;23279;46.472;30.760;2022-11-20T05:25:22;0.00;;;0.00;;
37413;SDS011;23279;46.472;30.760;2022-11-20T05:27:48;0.00;;;0.00;;
37413;SDS011;23279;46.472;30.760;2022-11-20T05:30:13;0.00;;;0.00;;
37413;SDS011;23279;46.472;30.760;2022-11-20T05:32:39;0.00;;;0.00;;
37413;SDS011;23279;46.472;30.760;2022-11-20T05:35:04;0.00;;;0.00;;
37413;SDS011;23279;46.472;30.760;2022-11-20T05:37:30;0.00;;;0.00;;
37413;SDS011;23279;46.472;30.760;2022-11-20T05:39:55;0.00;;;0.00;;
37413;SDS011;23279;46.472;30.760;2022-11-20T05:42:21;0.10;;;0.10;;
37413;SDS011;23279;46.472;30.760;2022-11-20T05:44:56;0.00;;;0.00;;
37413;SDS011;23279;46.472;30.760;2022-11-20T05:47:25;0.00;;;0.00;;
37413;SDS011;23279;46.472;30.760;2022-11-20T05:49:51;0.00;;;0.00;;
37413;SDS011;23279;46.472;30.760;2022-11-20T05:52:16;0.00;;;0.00;;
37413;SDS011;23279;46.472;30.760;2022-11-20T05:54:41;0.00;;;0.00;;
37413;SDS011;23279;46.472;30.760;2022-11-20T05:57:07;0.00;;;0.00;;
37413;SDS011;23279;46.472;30.760;2022-11-20T05:59:32;0.00;;;0.00;;
37413;SDS011;23279;46.472;30.760;2022-11-20T06:01:57;0.00;;;0.00;;
37413;SDS011;23279;46.472;30.760;2022-11-20T06:04:23;0.00;;;0.00;;
37413;SDS011;23279;46.472;30.760;2022-11-20T06:06:48;0.00;;;0.00;;
37413;SDS011;23279;46.472;30.760;2022-11-20T06:09:14;0.00;;;0.00;;
37413;SDS011;23279;46.472;30.760;2022-11-20T06:11:39;0.00;;;0.00;;
37413;SDS011;23279;46.472;30.760;2022-11-20T06:14:05;0.00;;;0.00;;
37413;SDS011;23279;46.472;30.760;2022-11-20T06:16:31;0.00;;;0.00;;
37413;SDS011;23279;46.472;30.760;2022-11-20T06:18:56;0.00;;;0.00;;
37413;SDS011;23279;46.472;30.760;2022-11-20T06:21:22;0.00;;;0.00;;
37413;SDS011;23279;46.472;30.760;2022-11-20T06:23:48;0.00;;;0.00;;
37413;SDS011;23279;46.472;30.760;2022-11-20T06:26:17;0.00;;;0.00;;
37413;SDS011;23279;46.472;30.760;2022-11-20T06:28:44;0.00;;;0.00;;
37413;SDS011;23279;46.472;30.760;2022-11-20T06:31:11;0.00;;;0.00;;
37413;SDS011;23279;46.472;30.760;2022-11-20T06:33:38;0.00;;;0.00;;
37413;SDS011;23279;46.472;30.760;2022-11-20T06:36:04;0.00;;;0.00;;
37413;SDS011;23279;46.472;30.760;2022-11-20T06:38:30;0.00;;;0.00;;
37413;SDS011;23279;46.472;30.760;2022-11-20T06:40:56;0.10;;;0.10;;
37413;SDS011;23279;46.472;30.760;2022-11-20T06:43:22;0.00;;;0.00;;
37413;SDS011;23279;46.472;30.760;2022-11-20T06:45:54;0.00;;;0.00;;
37413;SDS011;23279;46.472;30.760;2022-11-20T06:48:21;0.10;;;0.10;;
37413;SDS011;23279;46.472;30.760;2022-11-20T06:50:46;0.00;;;0.00;;
37413;SDS011;23279;46.472;30.760;2022-11-20T06:53:12;0.00;;;0.00;;
37413;SDS011;23279;46.472;30.760;2022-11-20T06:55:41;0.00;;;0.00;;
37413;SDS011;23279;46.472;30.760;2022-11-20T06:58:07;0.08;;;0.08;;
37413;SDS011;23279;46.472;30.760;2022-11-20T07:00:33;0.00;;;0.00;;
37413;SDS011;23279;46.472;30.760;2022-11-20T07:03:02;0.00;;;0.00;;
37413;SDS011;23279;46.472;30.760;2022-11-20T07:05:28;0.00;;;0.00;;
37413;SDS011;23279;46.472;30.760;2022-11-20T07:07:55;0.00;;;0.00;;
37413;SDS011;23279;46.472;30.760;2022-11-20T07:10:21;0.00;;;0.00;;
37413;SDS011;23279;46.472;30.760;2022-11-20T07:12:50;0.00;;;0.00;;
37413;SDS011;23279;46.472;30.760;2022-11-20T07:15:17;0.00;;;0.00;;
37413;SDS011;23279;46.472;30.760;2022-11-20T07:17:42;0.00;;;0.00;;
37413;SDS011;23279;46.472;30.760;2022-11-20T07:20:08;0.10;;;0.10;;
37413;SDS011;23279;46.472;30.760;2022-11-20T07:22:34;0.00;;;0.00;;
37413;SDS011;23279;46.472;30.760;2022-11-20T07:24:59;0.00;;;0.00;;
37413;SDS011;23279;46.472;30.760;2022-11-20T07:27:25;0.00;;;0.00;;
37413;SDS011;23279;46.472;30.760;2022-11-20T07:29:50;0.00;;;0.00;;
37413;SDS011;23279;46.472;30.760;2022-11-20T07:32:16;0.03;;;0.03;;
37413;SDS011;23279;46.472;30.760;2022-11-20T07:34:41;0.00;;;0.00;;
37413;SDS011;23279;46.472;30.760;2022-11-20T07:37:07;0.00;;;0.00;;
37413;SDS011;23279;46.472;30.760;2022-11-20T07:39:32;0.10;;;0.10;;
37413;SDS011;23279;46.472;30.760;2022-11-20T07:41:57;0.00;;;0.00;;
37413;SDS011;23279;46.472;30.760;2022-11-20T07:44:23;0.00;;;0.00;;
37413;SDS011;23279;46.472;30.760;2022-11-20T07:46:48;0.00;;;0.00;;
37413;SDS011;23279;46.472;30.760;2022-11-20T07:49:13;0.10;;;0.10;;
37413;SDS011;23279;46.472;30.760;2022-11-20T07:51:39;0.00;;;0.00;;
37413;SDS011;23279;46.472;30.760;2022-11-20T07:54:04;0.00;;;0.00;;
37413;SDS011;23279;46.472;30.760;2022-11-20T07:56:30;0.00;;;0.00;;
37413;SDS011;23279;46.472;30.760;2022-11-20T07:58:55;0.00;;;0.00;;
37413;SDS011;23279;46.472;30.760;2022-11-20T08:01:21;0.00;;;0.00;;
37413;SDS011;23279;46.472;30.760;2022-11-20T08:03:46;0.00;;;0.00;;
37413;SDS011;23279;46.472;30.760;2022-11-20T08:06:12;0.00;;;0.00;;
37413;SDS011;23279;46.472;30.760;2022-11-20T08:08:37;0.10;;;0.10;;
37413;SDS011;23279;46.472;30.760;2022-11-20T08:11:04;0.00;;;0.00;;
37413;SDS011;23279;46.472;30.760;2022-11-20T08:13:48;0.00;;;0.00;;
37413;SDS011;23279;46.472;30.760;2022-11-20T08:16:32;0.00;;;0.00;;
37413;SDS011;23279;46.472;30.760;2022-11-20T08:18:58;0.00;;;0.00;;
37413;SDS011;23279;46.472;30.760;2022-11-20T08:21:23;0.10;;;0.10;;
37413;SDS011;23279;46.472;30.760;2022-11-20T08:23:49;0.00;;;0.00;;
37413;SDS011;23279;46.472;30.760;2022-11-20T08:26:14;0.00;;;0.00;;
37413;SDS011;23279;46.472;30.760;2022-11-20T08:28:39;0.00;;;0.00;;
37413;SDS011;23279;46.472;30.760;2022-11-20T08:31:05;0.00;;;0.00;;
37413;SDS011;23279;46.472;30.760;2022-11-20T08:33:30;0.00;;;0.00;;
37413;SDS011;23279;46.472;30.760;2022-11-20T08:36:01;0.03;;;0.03;;
37413;SDS011;23279;46.472;30.760;2022-11-20T08:38:27;0.00;;;0.00;;
37413;SDS011;23279;46.472;30.760;2022-11-20T08:40:56;0.00;;;0.00;;
37413;SDS011;23279;46.472;30.760;2022-11-20T08:43:43;0.00;;;0.00;;
37413;SDS011;23279;46.472;30.760;2022-11-20T08:46:09;0.00;;;0.00;;
37413;SDS011;23279;46.472;30.760;2022-11-20T08:48:35;0.10;;;0.10;;
37413;SDS011;23279;46.472;30.760;2022-11-20T08:51:01;0.00;;;0.00;;
37413;SDS011;23279;46.472;30.760;2022-11-20T08:53:27;0.00;;;0.00;;
37413;SDS011;23279;46.472;30.760;2022-11-20T08:55:52;0.00;;;0.00;;
37413;SDS011;23279;46.472;30.760;2022-11-20T08:58:18;0.00;;;0.00;;
37413;SDS011;23279;46.472;30.760;2022-11-20T09:00:43;0.00;;;0.00;;
37413;SDS011;23279;46.472;30.760;2022-11-20T09:03:08;0.00;;;0.00;;
37413;SDS011;23279;46.472;30.760;2022-11-20T09:05:34;0.03;;;0.03;;
37413;SDS011;23279;46.472;30.760;2022-11-20T09:07:59;0.10;;;0.10;;
37413;SDS011;23279;46.472;30.760;2022-11-20T09:10:27;0.00;;;0.00;;
37413;SDS011;23279;46.472;30.760;2022-11-20T09:12:53;0.20;;;0.20;;
37413;SDS011;23279;46.472;30.760;2022-11-20T09:15:20;0.10;;;0.10;;
37413;SDS011;23279;46.472;30.760;2022-11-20T09:20:18;0.00;;;0.00;;
37413;SDS011;23279;46.472;30.760;2022-11-20T09:22:43;0.30;;;0.30;;
37413;SDS011;23279;46.472;30.760;2022-11-20T09:25:09;0.00;;;0.00;;
37413;SDS011;23279;46.472;30.760;2022-11-20T09:27:35;0.10;;;0.10;;
37413;SDS011;23279;46.472;30.760;2022-11-20T09:30:00;0.30;;;0.30;;
37413;SDS011;23279;46.472;30.760;2022-11-20T09:32:26;0.15;;;0.10;;
37413;SDS011;23279;46.472;30.760;2022-11-20T09:34:51;0.15;;;0.15;;
37413;SDS011;23279;46.472;30.760;2022-11-20T09:37:17;0.13;;;0.13;;
37413;SDS011;23279;46.472;30.760;2022-11-20T09:39:43;0.20;;;0.20;;
37413;SDS011;23279;46.472;30.760;2022-11-20T09:53:01;0.00;;;0.00;;
37413;SDS011;23279;46.472;30.760;2022-11-20T09:55:36;0.15;;;0.15;;
37413;SDS011;23279;46.472;30.760;2022-11-20T09:58:04;0.20;;;0.20;;
37413;SDS011;23279;46.472;30.760;2022-11-20T10:00:31;0.40;;;0.30;;
37413;SDS011;23279;46.472;30.760;2022-11-20T10:02:59;0.17;;;0.17;;
37413;SDS011;23279;46.472;30.760;2022-11-20T10:08:21;0.20;;;0.20;;
37413;SDS011;23279;46.472;30.760;2022-11-20T10:10:57;0.40;;;0.40;;
37413;SDS011;23279;46.472;30.760;2022-11-20T10:18:49;0.22;;;0.20;;
37413;SDS011;23279;46.472;30.760;2022-11-20T10:29:41;0.70;;;0.60;;
37413;SDS011;23279;46.472;30.760;2022-11-20T10:32:11;0.00;;;0.00;;
37413;SDS011;23279;46.472;30.760;2022-11-20T10:37:20;0.22;;;0.22;;
37413;SDS011;23279;46.472;30.760;2022-11-20T10:40:00;0.20;;;0.20;;
37413;SDS011;23279;46.472;30.760;2022-11-20T10:42:44;0.30;;;0.30;;
37413;SDS011;23279;46.472;30.760;2022-11-20T10:47:50;0.10;;;0.10;;
37413;SDS011;23279;46.472;30.760;2022-11-20T10:50:39;0.70;;;0.43;;
37413;SDS011;23279;46.472;30.760;2022-11-20T10:55:47;0.47;;;0.35;;
37413;SDS011;23279;46.472;30.760;2022-11-20T11:01:11;0.30;;;0.30;;
37413;SDS011;23279;46.472;30.760;2022-11-20T11:03:39;0.10;;;0.10;;
37413;SDS011;23279;46.472;30.760;2022-11-20T11:06:11;0.45;;;0.40;;
37413;SDS011;23279;46.472;30.760;2022-11-20T11:09:01;0.00;;;0.00;;
37413;SDS011;23279;46.472;30.760;2022-11-20T11:11:33;0.55;;;0.43;;
37413;SDS011;23279;46.472;30.760;2022-11-20T11:14:12;0.60;;;0.47;;
37413;SDS011;23279;46.472;30.760;2022-11-20T11:16:51;0.45;;;0.30;;
37413;SDS011;23279;46.472;30.760;2022-11-20T11:19:21;0.10;;;0.10;;
37413;SDS011;23279;46.472;30.760;2022-11-20T11:21:50;0.20;;;0.20;;
37413;SDS011;23279;46.472;30.760;2022-11-20T11:24:25;0.43;;;0.40;;
37413;SDS011;23279;46.472;30.760;2022-11-20T11:26:52;0.50;;;0.45;;
37413;SDS011;23279;46.472;30.760;2022-11-20T11:29:18;0.20;;;0.10;;
37413;SDS011;23279;46.472;30.760;2022-11-20T11:31:44;0.10;;;0.10;;
37413;SDS011;23279;46.472;30.760;2022-11-20T11:34:16;0.70;;;0.70;;
37413;SDS011;23279;46.472;30.760;2022-11-20T11:36:47;0.38;;;0.35;;
37413;SDS011;23279;46.472;30.760;2022-11-20T11:39:19;0.60;;;0.60;;
37413;SDS011;23279;46.472;30.760;2022-11-20T11:41:46;0.77;;;0.65;;
37413;SDS011;23279;46.472;30.760;2022-11-20T11:44:31;0.82;;;0.50;;
37413;SDS011;23279;46.472;30.760;2022-11-20T11:52:36;0.55;;;0.35;;
37413;SDS011;23279;46.472;30.760;2022-11-20T11:55:07;0.60;;;0.60;;
37413;SDS011;23279;46.472;30.760;2022-11-20T12:00:15;0.40;;;0.40;;
37413;SDS011;23279;46.472;30.760;2022-11-20T12:08:12;0.98;;;0.50;;
37413;SDS011;23279;46.472;30.760;2022-11-20T12:13:44;0.50;;;0.50;;
37413;SDS011;23279;46.472;30.760;2022-11-20T12:16:16;0.30;;;0.30;;
37413;SDS011;23279;46.472;30.760;2022-11-20T12:18:44;1.13;;;0.85;;
37413;SDS011;23279;46.472;30.760;2022-11-20T12:26:56;0.47;;;0.47;;
37413;SDS011;23279;46.472;30.760;2022-11-20T13:03:54;0.00;;;0.00;;
37413;SDS011;23279;46.472;30.760;2022-11-20T13:06:25;0.05;;;0.05;;
37413;SDS011;23279;46.472;30.760;2022-11-20T13:08:55;0.00;;;0.00;;
37413;SDS011;23279;46.472;30.760;2022-11-20T13:14:14;0.20;;;0.20;;
37413;SDS011;23279;46.472;30.760;2022-11-20T13:19:20;0.05;;;0.05;;
37413;SDS011;23279;46.472;30.760;2022-11-20T13:21:46;0.20;;;0.20;;
37413;SDS011;23279;46.472;30.760;2022-11-20T13:29:24;0.28;;;0.28;;
37413;SDS011;23279;46.472;30.760;2022-11-20T13:31:49;0.10;;;0.10;;
37413;SDS011;23279;46.472;30.760;2022-11-20T13:34:25;0.20;;;0.20;;
37413;SDS011;23279;46.472;30.760;2022-11-20T13:36:53;0.20;;;0.15;;
37413;SDS011;23279;46.472;30.760;2022-11-20T13:39:24;0.10;;;0.10;;
37413;SDS011;23279;46.472;30.760;2022-11-20T13:41:55;0.32;;;0.17;;
37413;SDS011;23279;46.472;30.760;2022-11-20T13:46:53;0.63;;;0.40;;
37413;SDS011;23279;46.472;30.760;2022-11-20T13:49:32;0.40;;;0.30;;
37413;SDS011;23279;46.472;30.760;2022-11-20T13:54:55;0.10;;;0.10;;
37413;SDS011;23279;46.472;30.760;2022-11-20T14:02:35;0.10;;;0.10;;
37413;SDS011;23279;46.472;30.760;2022-11-20T14:05:01;0.00;;;0.00;;
37413;SDS011;23279;46.472;30.760;2022-11-20T14:07:37;0.10;;;0.10;;
37413;SDS011;23279;46.472;30.760;2022-11-20T14:10:05;0.25;;;0.22;;
37413;SDS011;23279;46.472;30.760;2022-11-20T14:12:44;0.32;;;0.32;;
37413;SDS011;23279;46.472;30.760;2022-11-20T14:15:23;0.38;;;0.30;;
37413;SDS011;23279;46.472;30.760;2022-11-20T14:17:57;0.22;;;0.20;;
37413;SDS011;23279;46.472;30.760;2022-11-20T14:20:23;0.30;;;0.30;;
37413;SDS011;23279;46.472;30.760;2022-11-20T14:22:52;0.30;;;0.30;;
37413;SDS011;23279;46.472;30.760;2022-11-20T14:25:20;0.20;;;0.20;;
37413;SDS011;23279;46.472;30.760;2022-11-20T14:27:50;0.10;;;0.10;;
37413;SDS011;23279;46.472;30.760;2022-11-20T14:30:22;0.20;;;0.20;;
37413;SDS011;23279;46.472;30.760;2022-11-20T14:32:51;0.05;;;0.05;;
37413;SDS011;23279;46.472;30.760;2022-11-20T14:35:20;0.10;;;0.10;;
37413;SDS011;23279;46.472;30.760;2022-11-20T14:37:49;0.20;;;0.20;;
37413;SDS011;23279;46.472;30.760;2022-11-20T14:40:28;0.10;;;0.10;;
37413;SDS011;23279;46.472;30.760;2022-11-20T14:43:00;0.13;;;0.13;;
37413;SDS011;23279;46.472;30.760;2022-11-20T14:45:25;0.13;;;0.13;;
37413;SDS011;23279;46.472;30.760;2022-11-20T14:47:55;0.10;;;0.10;;
37413;SDS011;23279;46.472;30.760;2022-11-20T14:50:26;0.00;;;0.00;;
37413;SDS011;23279;46.472;30.760;2022-11-20T14:52:57;0.57;;;0.40;;
37413;SDS011;23279;46.472;30.760;2022-11-20T14:55:34;0.00;;;0.00;;
37413;SDS011;23279;46.472;30.760;2022-11-20T14:58:06;0.30;;;0.30;;
37413;SDS011;23279;46.472;30.760;2022-11-20T15:00:55;0.08;;;0.08;;
37413;SDS011;23279;46.472;30.760;2022-11-20T15:03:22;0.08;;;0.08;;
37413;SDS011;23279;46.472;30.760;2022-11-20T15:05:48;0.10;;;0.10;;
37413;SDS011;23279;46.472;30.760;2022-11-20T15:08:15;0.20;;;0.20;;
37413;SDS011;23279;46.472;30.760;2022-11-20T15:10:48;0.22;;;0.22;;
37413;SDS011;23279;46.472;30.760;2022-11-20T15:13:25;0.00;;;0.00;;
37413;SDS011;23279;46.472;30.760;2022-11-20T15:15:55;0.10;;;0.10;;
37413;SDS011;23279;46.472;30.760;2022-11-20T15:18:29;0.20;;;0.20;;
37413;SDS011;23279;46.472;30.760;2022-11-20T15:20:57;0.25;;;0.20;;
37413;SDS011;23279;46.472;30.760;2022-11-20T15:23:26;0.28;;;0.28;;
37413;SDS011;23279;46.472;30.760;2022-11-20T15:25:52;0.20;;;0.20;;
37413;SDS011;23279;46.472;30.760;2022-11-20T15:28:19;0.17;;;0.13;;
37413;SDS011;23279;46.472;30.760;2022-11-20T15:30:48;0.20;;;0.20;;
37413;SDS011;23279;46.472;30.760;2022-11-20T15:33:14;0.10;;;0.10;;
37413;SDS011;23279;46.472;30.760;2022-11-20T15:35:41;0.28;;;0.28;;
37413;SDS011;23279;46.472;30.760;2022-11-20T15:38:06;0.10;;;0.10;;
37413;SDS011;23279;46.472;30.760;2022-11-20T15:40:31;0.20;;;0.20;;
37413;SDS011;23279;46.472;30.760;2022-11-20T15:42:57;0.20;;;0.20;;
37413;SDS011;23279;46.472;30.760;2022-11-20T15:45:38;0.20;;;0.20;;
37413;SDS011;23279;46.472;30.760;2022-11-20T15:48:05;0.20;;;0.17;;
37413;SDS011;23279;46.472;30.760;2022-11-20T15:50:38;0.20;;;0.20;;
37413;SDS011;23279;46.472;30.760;2022-11-20T15:53:09;0.30;;;0.30;;
37413;SDS011;23279;46.472;30.760;2022-11-20T15:55:35;0.17;;;0.17;;
37413;SDS011;23279;46.472;30.760;2022-11-20T15:58:00;0.28;;;0.28;;
37413;SDS011;23279;46.472;30.760;2022-11-20T16:00:26;0.10;;;0.10;;
37413;SDS011;23279;46.472;30.760;2022-11-20T16:02:51;0.30;;;0.10;;
37413;SDS011;23279;46.472;30.760;2022-11-20T16:05:17;0.10;;;0.10;;
37413;SDS011;23279;46.472;30.760;2022-11-20T16:07:42;0.20;;;0.20;;
37413;SDS011;23279;46.472;30.760;2022-11-20T16:10:08;0.52;;;0.40;;
37413;SDS011;23279;46.472;30.760;2022-11-20T16:12:33;0.15;;;0.15;;
37413;SDS011;23279;46.472;30.760;2022-11-20T16:15:17;0.20;;;0.20;;
37413;SDS011;23279;46.472;30.760;2022-11-20T16:18:01;0.10;;;0.10;;
37413;SDS011;23279;46.472;30.760;2022-11-20T16:20:27;0.10;;;0.10;;
37413;SDS011;23279;46.472;30.760;2022-11-20T16:22:52;0.13;;;0.10;;
37413;SDS011;23279;46.472;30.760;2022-11-20T16:25:18;0.20;;;0.20;;
37413;SDS011;23279;46.472;30.760;2022-11-20T16:27:43;0.75;;;0.47;;
37413;SDS011;23279;46.472;30.760;2022-11-20T16:30:09;0.00;;;0.00;;
37413;SDS011;23279;46.472;30.760;2022-11-20T16:32:35;0.22;;;0.15;;
37413;SDS011;23279;46.472;30.760;2022-11-20T16:35:00;0.40;;;0.10;;
37413;SDS011;23279;46.472;30.760;2022-11-20T16:37:25;0.45;;;0.22;;
37413;SDS011;23279;46.472;30.760;2022-11-20T16:39:51;0.30;;;0.30;;
37413;SDS011;23279;46.472;30.760;2022-11-20T16:42:16;0.00;;;0.00;;
37413;SDS011;23279;46.472;30.760;2022-11-20T16:44:42;0.00;;;0.00;;